ΕΜΥ, Εθνική Μετεωρολογική Υπηρεσία - Δελτία Καιρού, Προγνώσεις

ΑΕΡΟΝΑΥΤΙΛΙΑ

GREEK AIRPORTS CODES

TAF LGST 250800Z 2509/2518 29016KT 9999 FEW025 BECMG 2516/2518 VRB03KT=

EUROPEAN AIRPORTS CODES

LFPO 250930Z 27011KT 9999 FEW026 BKN043 09/04 Q1008 NOSIG=